Time;durP1;ratioP1;P1;durP2;ratioP2;P2;SDS_P1;SDS_P2;PMS_P1;PMS_P2;Temp;Humidity;BMP_temperature;BMP_pressure;BME280_temperature;BME280_humidity;BME280_pressure;Samples;Min_cycle;Max_cycle;Signal;HPM_P1;HPM_P2
2021/12/12 00:01:50;;;;;;;1.60;1.10;;;15.50;50.20;;;;;;5113671;28;20012;-58
2021/12/12 00:04:17;;;;;;;2.30;1.20;;;15.50;50.30;;;;;;5113829;28;20016;-58
2021/12/12 00:06:58;;;;;;;1.40;1.10;;;15.50;50.20;;;;;;5113827;28;20026;-58
2021/12/12 00:09:33;;;;;;;3.40;1.00;;;15.40;50.20;;;;;;5091647;28;20036;-58
2021/12/12 00:12:01;;;;;;;2.03;1.02;;;15.50;50.30;;;;;;5093235;28;20020;-58
2021/12/12 00:14:31;;;;;;;2.05;1.30;;;15.40;50.20;;;;;;5093473;28;20023;-58
2021/12/12 00:16:58;;;;;;;1.85;1.17;;;15.50;50.20;;;;;;5097158;28;20424;-57
2021/12/12 00:19:24;;;;;;;2.30;1.23;;;15.50;50.20;;;;;;5097289;28;20020;-58
2021/12/12 00:21:52;;;;;;;1.92;1.20;;;15.40;50.20;;;;;;5097326;28;20110;-57
2021/12/12 00:24:18;;;;;;;1.55;1.05;;;15.40;50.20;;;;;;5097201;28;20041;-58
2021/12/12 00:26:45;;;;;;;2.25;1.33;;;15.40;50.20;;;;;;5097357;28;20012;-58
2021/12/12 00:29:11;;;;;;;1.30;0.98;;;15.40;50.30;;;;;;5097091;28;20022;-58
2021/12/12 00:31:37;;;;;;;1.92;1.30;;;15.40;50.20;;;;;;5097573;28;20009;-58
2021/12/12 00:34:03;;;;;;;4.82;1.23;;;15.40;50.20;;;;;;5096894;28;20455;-58
2021/12/12 00:36:34;;;;;;;1.42;1.00;;;15.40;50.20;;;;;;5096845;28;20016;-57
2021/12/12 00:39:03;;;;;;;1.48;1.08;;;15.40;50.30;;;;;;5096288;28;20093;-55
2021/12/12 00:41:40;;;;;;;2.33;1.30;;;15.40;50.30;;;;;;5097221;28;20011;-56
2021/12/12 00:44:06;;;;;;;1.40;0.80;;;15.40;50.30;;;;;;5096954;28;20077;-57
2021/12/12 00:46:32;;;;;;;2.53;1.13;;;15.40;50.30;;;;;;5097265;28;20470;-57
2021/12/12 00:49:00;;;;;;;1.75;1.00;;;15.40;50.20;;;;;;5095896;28;20016;-58
2021/12/12 00:51:36;;;;;;;1.45;1.00;;;15.40;50.30;;;;;;5095537;28;20031;-58
2021/12/12 00:54:03;;;;;;;2.70;1.10;;;15.40;50.30;;;;;;5097220;28;20009;-57
2021/12/12 00:56:29;;;;;;;1.40;1.00;;;15.40;50.30;;;;;;5095471;28;20023;-57
2021/12/12 00:58:55;;;;;;;2.00;1.33;;;15.40;50.30;;;;;;5097440;28;20031;-57
2021/12/12 01:01:25;;;;;;;1.55;1.00;;;15.40;50.30;;;;;;5096691;28;20020;-57
2021/12/12 01:04:03;;;;;;;1.77;1.08;;;15.40;50.30;;;;;;5096508;28;20016;-57
2021/12/12 01:06:30;;;;;;;1.75;1.00;;;15.40;50.30;;;;;;5096488;28;20011;-57
2021/12/12 01:08:58;;;;;;;1.63;1.13;;;15.40;50.30;;;;;;5106975;28;20051;-57
2021/12/12 01:11:31;;;;;;;1.88;1.13;;;15.40;50.40;;;;;;5115117;28;20480;-57
2021/12/12 01:13:57;;;;;;;1.20;0.88;;;15.40;50.30;;;;;;5115259;28;20087;-56
2021/12/12 01:16:27;;;;;;;1.88;1.27;;;15.40;50.30;;;;;;5115190;28;20687;-57
2021/12/12 01:19:02;;;;;;;1.73;1.10;;;15.40;50.40;;;;;;5115104;28;20076;-54
2021/12/12 01:21:34;;;;;;;2.00;1.10;;;15.40;50.40;;;;;;5115569;28;20047;-54
2021/12/12 01:24:04;;;;;;;;;;;15.40;50.40;;;;;;5116875;28;20016;-55
2021/12/12 01:26:30;;;;;;;2.07;1.30;;;15.40;50.30;;;;;;5115513;28;19988;-54
2021/12/12 01:28:57;;;;;;;1.60;1.00;;;15.40;50.30;;;;;;5115519;28;20295;-55
2021/12/12 01:31:26;;;;;;;1.85;0.90;;;15.30;50.30;;;;;;5115198;28;20016;-54
2021/12/12 01:33:59;;;;;;;3.70;1.10;;;15.40;50.40;;;;;;5115188;28;20087;-54
2021/12/12 01:36:41;;;;;;;2.17;0.93;;;15.30;50.40;;;;;;5114559;28;20012;-55
2021/12/12 01:39:07;;;;;;;1.45;1.05;;;15.30;50.40;;;;;;5114912;28;20022;-54
2021/12/12 01:41:39;;;;;;;1.67;1.05;;;15.30;50.30;;;;;;5114565;28;20020;-55
2021/12/12 01:44:40;;;;;;;2.15;1.45;;;15.30;50.40;;;;;;5114596;28;20012;-55
2021/12/12 01:47:08;;;;;;;3.63;1.10;;;15.30;50.40;;;;;;5089857;28;20027;-54
2021/12/12 01:49:36;;;;;;;1.20;1.00;;;15.30;50.40;;;;;;5114838;28;20027;-55
2021/12/12 01:52:04;;;;;;;1.92;1.00;;;15.30;50.40;;;;;;5114815;28;20015;-55
2021/12/12 01:54:42;;;;;;;1.70;1.13;;;15.30;50.40;;;;;;5114692;28;20007;-55
2021/12/12 01:57:08;;;;;;;1.27;0.85;;;15.30;50.40;;;;;;5114488;28;20051;-53
2021/12/12 01:59:38;;;;;;;2.42;1.20;;;15.30;50.40;;;;;;5114281;28;20476;-54
2021/12/12 02:02:05;;;;;;;1.30;0.90;;;15.30;50.40;;;;;;5114376;28;20033;-54
2021/12/12 02:04:38;;;;;;;1.40;1.00;;;15.30;50.40;;;;;;5114233;28;20496;-54
2021/12/12 02:07:05;;;;;;;1.25;1.00;;;15.30;50.40;;;;;;5114505;28;20012;-55
2021/12/12 02:09:31;;;;;;;1.15;1.02;;;15.30;50.40;;;;;;5074979;28;1135146;-53
2021/12/12 02:11:58;;;;;;;1.40;0.93;;;15.30;50.40;;;;;;5115516;28;20098;-54
2021/12/12 02:14:23;;;;;;;1.40;0.90;;;15.30;50.30;;;;;;5115656;28;20150;-54
2021/12/12 02:16:51;;;;;;;2.00;0.82;;;15.30;50.40;;;;;;5097785;28;20475;-57
2021/12/12 02:19:17;;;;;;;2.63;1.10;;;15.30;50.40;;;;;;5115183;28;20036;-55
2021/12/12 02:37:35;;;;;;;2.17;1.05;;;15.30;50.40;;;;;;5113749;28;20062;-52
2021/12/12 02:40:02;;;;;;;1.73;1.13;;;15.30;50.40;;;;;;5114509;28;20011;-53
2021/12/12 02:42:28;;;;;;;2.17;1.10;;;15.30;50.40;;;;;;5114470;28;20454;-55
2021/12/12 02:44:57;;;;;;;1.50;1.00;;;15.20;50.40;;;;;;5114641;28;20026;-55
2021/12/12 02:47:32;;;;;;;1.15;0.90;;;15.20;50.40;;;;;;5114518;28;20462;-54
2021/12/12 02:50:09;;;;;;;2.05;1.10;;;15.30;50.50;;;;;;5114304;28;20381;-56
2021/12/12 02:52:35;;;;;;;1.42;1.20;;;15.20;50.40;;;;;;5114321;28;20024;-53
2021/12/12 02:55:08;;;;;;;1.15;0.88;;;15.20;50.40;;;;;;5114317;28;20012;-55
2021/12/12 02:57:34;;;;;;;1.20;0.80;;;15.20;50.50;;;;;;5114102;28;20473;-55
2021/12/12 03:00:00;;;;;;;2.10;1.20;;;15.20;50.40;;;;;;5079108;28;20012;-54
2021/12/12 03:02:28;;;;;;;1.35;1.10;;;15.20;50.40;;;;;;5095915;28;20014;-55
2021/12/12 03:04:56;;;;;;;1.13;0.93;;;15.30;50.50;;;;;;5114408;28;20141;-55
2021/12/12 03:07:22;;;;;;;1.55;1.10;;;15.20;50.40;;;;;;5114562;28;20012;-54
2021/12/12 03:09:51;;;;;;;2.83;1.40;;;15.30;50.40;;;;;;5079041;28;20052;-56
2021/12/12 03:12:23;;;;;;;1.52;1.00;;;15.30;50.30;;;;;;5114759;28;20023;-55
2021/12/12 03:14:53;;;;;;;1.65;1.23;;;15.40;50.10;;;;;;5114627;28;20470;-55
2021/12/12 03:17:22;;;;;;;2.13;1.10;;;15.50;50.00;;;;;;5097006;28;20031;-55
2021/12/12 03:19:51;;;;;;;2.25;1.30;;;15.50;49.70;;;;;;5114058;28;20007;-56
2021/12/12 03:22:18;;;;;;;1.23;1.00;;;15.60;49.60;;;;;;5114276;28;20015;-55
2021/12/12 03:24:53;;;;;;;3.08;0.95;;;15.70;49.40;;;;;;5114074;28;20039;-54
2021/12/12 03:27:23;;;;;;;1.80;1.10;;;15.70;49.30;;;;;;5114047;28;20022;-55
2021/12/12 03:29:49;;;;;;;1.98;1.05;;;15.80;49.10;;;;;;5113841;28;20014;-55
2021/12/12 03:32:18;;;;;;;0.80;0.70;;;15.90;49.10;;;;;;5096234;28;20486;-54
2021/12/12 03:34:48;;;;;;;0.98;0.85;;;16.00;48.90;;;;;;5114128;28;20359;-54
2021/12/12 03:37:15;;;;;;;2.15;1.08;;;16.00;48.60;;;;;;5114176;28;20024;-55
2021/12/12 03:39:42;;;;;;;1.77;1.02;;;16.10;48.40;;;;;;5095587;28;20458;-55
2021/12/12 03:42:11;;;;;;;2.65;1.20;;;16.20;48.30;;;;;;5114114;28;20010;-55
2021/12/12 03:44:38;;;;;;;1.48;0.90;;;16.30;48.10;;;;;;5095815;28;20008;-56
2021/12/12 03:47:11;;;;;;;1.30;0.80;;;16.30;48.00;;;;;;5113687;28;20458;-55
2021/12/12 03:49:37;;;;;;;1.40;1.00;;;16.40;47.80;;;;;;5114217;28;20501;-55
2021/12/12 03:52:05;;;;;;;2.08;0.95;;;16.50;47.70;;;;;;5113670;28;20593;-55
2021/12/12 03:54:31;;;;;;;1.70;0.90;;;16.50;47.50;;;;;;5113913;28;20077;-55
2021/12/12 03:56:57;;;;;;;2.08;0.90;;;16.50;47.40;;;;;;5078271;28;20417;-55
2021/12/12 03:59:23;;;;;;;1.30;0.98;;;16.60;47.30;;;;;;5113246;28;20514;-53
2021/12/12 04:01:50;;;;;;;1.50;1.00;;;16.70;47.20;;;;;;5113521;28;20033;-55
2021/12/12 04:04:20;;;;;;;1.40;0.90;;;16.70;47.10;;;;;;5113251;28;20016;-55
2021/12/12 04:06:47;;;;;;;1.05;0.82;;;16.80;47.00;;;;;;5113141;28;20027;-55
2021/12/12 04:09:14;;;;;;;1.30;0.75;;;16.80;46.90;;;;;;5074728;28;20044;-54
2021/12/12 04:11:43;;;;;;;1.65;1.10;;;16.90;46.80;;;;;;5093150;28;20065;-55
2021/12/12 04:14:09;;;;;;;2.00;1.23;;;16.90;46.70;;;;;;5093052;28;20012;-55
2021/12/12 04:16:37;;;;;;;1.52;0.90;;;16.90;46.60;;;;;;5092962;28;20403;-55
2021/12/12 04:19:04;;;;;;;1.60;1.00;;;17.00;46.60;;;;;;5092723;28;20020;-56
2021/12/12 04:21:31;;;;;;;1.52;0.90;;;17.00;46.60;;;;;;5092689;28;20463;-54
2021/12/12 04:23:57;;;;;;;0.73;0.65;;;17.00;46.50;;;;;;5093011;28;20012;-55
2021/12/12 04:26:34;;;;;;;1.10;0.95;;;17.00;46.50;;;;;;5092945;28;20008;-55
2021/12/12 04:29:17;;;;;;;3.05;0.80;;;17.10;47.10;;;;;;5092869;28;20016;-54
2021/12/12 04:31:52;;;;;;;1.33;1.00;;;17.10;46.40;;;;;;5092616;28;20009;-55
2021/12/12 04:34:20;;;;;;;1.10;0.80;;;17.10;46.40;;;;;;5092851;28;20023;-53
2021/12/12 04:36:46;;;;;;;0.75;0.70;;;17.10;46.40;;;;;;5091189;28;20120;-55
2021/12/12 04:39:15;;;;;;;1.65;0.98;;;17.10;46.40;;;;;;5092477;28;20467;-54
2021/12/12 04:41:42;;;;;;;1.90;1.17;;;17.10;46.30;;;;;;5092810;28;20008;-55
2021/12/12 04:44:08;;;;;;;1.75;1.00;;;17.20;46.30;;;;;;5092823;28;20011;-55
2021/12/12 04:52:17;;;;;;;1.05;0.77;;;17.20;46.10;;;;;;5091819;28;20031;-55
2021/12/12 04:55:10;;;;;;;1.33;0.98;;;17.30;46.10;;;;;;5092710;28;20043;-55
2021/12/12 04:57:41;;;;;;;1.52;0.80;;;17.30;46.20;;;;;;5037110;28;20045;-54
2021/12/12 05:00:10;;;;;;;1.95;1.10;;;17.30;46.60;;;;;;5017062;28;20048;-55
2021/12/12 05:02:59;;;;;;;1.42;0.95;;;17.30;46.10;;;;;;5053525;28;20035;-53
2021/12/12 05:05:34;;;;;;;1.48;0.90;;;17.30;46.10;;;;;;5053701;28;20013;-54
2021/12/12 05:08:25;;;;;;;4.82;0.90;;;17.30;46.10;;;;;;5020612;28;20037;-54
2021/12/12 05:10:58;;;;;;;;;;;17.30;46.10;;;;;;5027156;28;20032;-55
2021/12/12 05:13:46;;;;;;;1.17;0.90;;;17.40;46.00;;;;;;5053839;28;20406;-53
2021/12/12 05:16:20;;;;;;;0.93;0.80;;;17.40;46.00;;;;;;5053754;28;20426;-55
2021/12/12 05:18:51;;;;;;;2.00;0.82;;;17.40;46.00;;;;;;5038232;28;20040;-53
2021/12/12 05:21:23;;;;;;;1.23;1.00;;;17.40;45.90;;;;;;5037431;28;20029;-54
2021/12/12 05:23:52;;;;;;;1.88;1.08;;;17.40;46.00;;;;;;5036894;28;20017;-54
2021/12/12 05:26:25;;;;;;;0.90;0.68;;;17.40;46.00;;;;;;5037007;28;20013;-54
2021/12/12 05:29:00;;;;;;;0.98;0.82;;;17.40;46.10;;;;;;5037068;28;20071;-55
2021/12/12 05:31:29;;;;;;;1.20;0.90;;;17.40;46.10;;;;;;5053247;28;20035;-55
2021/12/12 05:33:54;;;;;;;1.10;0.82;;;17.40;46.00;;;;;;5052108;28;20044;-54
2021/12/12 05:36:20;;;;;;;1.00;0.77;;;17.40;46.00;;;;;;5095447;28;20016;-54
2021/12/12 05:38:46;;;;;;;1.15;0.90;;;17.40;46.00;;;;;;5094932;28;20500;-54
2021/12/12 05:41:11;;;;;;;1.55;0.80;;;17.50;46.00;;;;;;5096045;28;20102;-55
2021/12/12 05:43:38;;;;;;;1.00;0.80;;;17.50;45.90;;;;;;5095663;28;20016;-55
2021/12/12 05:46:04;;;;;;;1.25;0.70;;;17.50;46.00;;;;;;5094066;28;20087;-56
2021/12/12 05:48:31;;;;;;;1.10;0.70;;;17.50;46.10;;;;;;5095775;28;20020;-56
2021/12/12 05:50:57;;;;;;;1.30;0.80;;;17.50;46.00;;;;;;5094973;28;20024;-56
2021/12/12 05:53:23;;;;;;;1.08;0.70;;;17.50;46.00;;;;;;5094112;28;20027;-57
2021/12/12 05:55:49;;;;;;;0.73;0.73;;;17.50;46.00;;;;;;5095243;28;20013;-55
2021/12/12 05:58:17;;;;;;;0.93;0.73;;;17.50;46.00;;;;;;5095032;28;20544;-56
2021/12/12 06:00:55;;;;;;;1.17;0.70;;;17.50;46.50;;;;;;5093771;28;20008;-56
2021/12/12 06:03:24;;;;;;;0.88;0.65;;;17.50;46.00;;;;;;5095309;28;20050;-55
2021/12/12 06:05:50;;;;;;;1.25;0.85;;;17.50;45.90;;;;;;5093718;28;20012;-55
2021/12/12 06:08:16;;;;;;;1.20;0.75;;;17.50;46.00;;;;;;5100749;28;20059;-56
2021/12/12 06:10:42;;;;;;;3.50;0.70;;;17.60;45.90;;;;;;5097582;28;20015;-55
2021/12/12 06:13:11;;;;;;;1.25;0.93;;;17.60;45.90;;;;;;5079488;28;20043;-55
2021/12/12 06:15:37;;;;;;;1.10;0.80;;;17.60;45.80;;;;;;5115075;28;20478;-54
2021/12/12 06:18:03;;;;;;;1.08;0.80;;;17.60;45.90;;;;;;5079923;28;20093;-54
2021/12/12 06:20:29;;;;;;;1.08;0.70;;;17.60;45.90;;;;;;5096910;28;20004;-56
2021/12/12 06:22:55;;;;;;;1.55;0.95;;;17.60;45.90;;;;;;5115241;28;20539;-55
2021/12/12 06:25:21;;;;;;;0.63;0.60;;;17.60;46.00;;;;;;5115261;28;20015;-56
2021/12/12 06:27:48;;;;;;;1.48;0.75;;;17.60;46.00;;;;;;5115111;28;20020;-55
2021/12/12 06:30:15;;;;;;;1.00;0.65;;;17.60;46.00;;;;;;5096890;28;20030;-54
2021/12/12 06:32:43;;;;;;;1.13;0.70;;;17.60;45.90;;;;;;5115157;28;20008;-55
2021/12/12 06:35:08;;;;;;;1.00;0.90;;;17.60;45.90;;;;;;5115432;28;20015;-55
2021/12/12 06:37:35;;;;;;;1.00;0.63;;;17.60;45.90;;;;;;5114892;28;20020;-55
2021/12/12 06:40:01;;;;;;;1.27;0.90;;;17.60;45.90;;;;;;5096811;28;20149;-55
2021/12/12 06:42:27;;;;;;;0.50;0.50;;;17.60;45.90;;;;;;5114493;28;20019;-55
2021/12/12 06:44:52;;;;;;;1.27;0.88;;;17.60;45.90;;;;;;5096562;28;20015;-55
2021/12/12 06:47:19;;;;;;;1.58;0.90;;;17.60;45.90;;;;;;5114910;28;20526;-55
2021/12/12 06:49:45;;;;;;;1.52;1.08;;;17.60;46.00;;;;;;5114454;28;20105;-55
2021/12/12 06:52:12;;;;;;;0.50;0.50;;;17.70;46.00;;;;;;5096788;28;20043;-55
2021/12/12 06:54:38;;;;;;;0.95;0.50;;;17.70;45.90;;;;;;5079525;28;20110;-55
2021/12/12 06:57:06;;;;;;;0.93;0.80;;;17.70;45.90;;;;;;5062466;28;20122;-54
2021/12/12 06:59:33;;;;;;;2.25;0.80;;;17.60;45.90;;;;;;5114325;28;20046;-55
2021/12/12 07:02:00;;;;;;;0.93;0.73;;;17.70;46.00;;;;;;5114237;28;20016;-54
2021/12/12 07:04:26;;;;;;;0.75;0.55;;;17.70;46.00;;;;;;5114477;28;20019;-54
2021/12/12 07:06:53;;;;;;;1.20;0.88;;;17.60;46.00;;;;;;5114680;28;20007;-56
2021/12/12 07:09:20;;;;;;;1.02;0.77;;;17.60;46.10;;;;;;5114260;28;20117;-55
2021/12/12 07:11:46;;;;;;;1.10;0.70;;;17.60;46.20;;;;;;5114199;28;20454;-54
2021/12/12 07:14:13;;;;;;;1.02;0.70;;;17.50;46.30;;;;;;5114071;28;20039;-54
2021/12/12 07:16:41;;;;;;;0.52;0.50;;;17.50;46.40;;;;;;5095833;28;20016;-54
2021/12/12 07:19:07;;;;;;;1.05;0.70;;;17.50;46.40;;;;;;5096503;28;20019;-55
2021/12/12 07:21:33;;;;;;;3.38;0.80;;;17.50;46.40;;;;;;5114610;28;20080;-55
2021/12/12 07:24:00;;;;;;;0.57;0.55;;;17.50;46.50;;;;;;5095479;28;20478;-55
2021/12/12 07:26:25;;;;;;;1.20;0.70;;;17.40;46.50;;;;;;5114339;28;20023;-55
2021/12/12 07:28:52;;;;;;;1.75;0.88;;;17.40;46.60;;;;;;5096531;28;20366;-55
2021/12/12 07:31:20;;;;;;;1.30;0.90;;;17.30;46.70;;;;;;5114247;28;20015;-55
2021/12/12 07:33:49;;;;;;;1.00;0.63;;;17.30;46.80;;;;;;5113830;28;20015;-54
2021/12/12 07:36:15;;;;;;;1.85;0.85;;;17.30;46.80;;;;;;5114345;28;20020;-54
2021/12/12 07:38:43;;;;;;;1.08;0.73;;;17.30;47.00;;;;;;5096134;28;20372;-54
2021/12/12 07:41:08;;;;;;;0.80;0.80;;;17.20;47.00;;;;;;5113697;28;20050;-55
2021/12/12 07:43:34;;;;;;;1.55;0.70;;;17.20;47.10;;;;;;5095876;28;20389;-56
2021/12/12 07:46:00;;;;;;;1.17;0.80;;;17.20;47.10;;;;;;5113709;28;20016;-54
2021/12/12 07:48:26;;;;;;;0.88;0.77;;;17.20;47.20;;;;;;5113577;28;20008;-55
2021/12/12 07:50:51;;;;;;;1.25;0.82;;;17.10;47.30;;;;;;5095418;28;20096;-54
2021/12/12 07:53:17;;;;;;;0.80;0.80;;;17.10;47.40;;;;;;5078489;28;20039;-55
2021/12/12 07:55:45;;;;;;;1.10;0.60;;;17.10;47.40;;;;;;5113381;28;20359;-54
2021/12/12 07:58:13;;;;;;;0.75;0.65;;;17.00;47.40;;;;;;5095546;28;20542;-55
2021/12/12 08:00:39;;;;;;;1.48;0.80;;;17.00;47.50;;;;;;5095026;28;20061;-53
2021/12/12 08:03:05;;;;;;;2.55;0.90;;;17.00;47.50;;;;;;5113528;28;20022;-55
2021/12/12 08:05:32;;;;;;;0.98;0.80;;;17.00;47.70;;;;;;5095134;28;20016;-55
2021/12/12 08:07:59;;;;;;;0.70;0.55;;;17.00;47.70;;;;;;5095069;28;20039;-55
2021/12/12 08:10:25;;;;;;;1.38;0.90;;;16.90;47.70;;;;;;5113462;28;20039;-55
2021/12/12 08:12:51;;;;;;;1.10;0.70;;;16.90;47.90;;;;;;5095866;28;20023;-55
2021/12/12 08:15:17;;;;;;;1.52;0.90;;;16.90;47.90;;;;;;5096066;28;20019;-55
2021/12/12 08:17:43;;;;;;;0.80;0.50;;;16.80;47.90;;;;;;5113253;28;20489;-54
2021/12/12 08:20:10;;;;;;;1.05;0.80;;;16.80;48.00;;;;;;5095280;28;20019;-55
2021/12/12 08:22:36;;;;;;;0.70;0.70;;;16.80;48.20;;;;;;5096068;28;20493;-59
2021/12/12 08:25:03;;;;;;;1.77;1.05;;;16.80;48.10;;;;;;5078755;28;20008;-55
2021/12/12 08:27:29;;;;;;;0.90;0.70;;;16.80;48.20;;;;;;5113243;28;20492;-55
2021/12/12 08:29:56;;;;;;;0.80;0.70;;;16.80;48.20;;;;;;5095168;28;20046;-54
2021/12/12 08:32:23;;;;;;;0.90;0.77;;;16.70;48.30;;;;;;5113469;28;20023;-54
2021/12/12 08:34:48;;;;;;;0.95;0.70;;;16.80;48.30;;;;;;5113124;28;20024;-55
2021/12/12 08:37:14;;;;;;;1.02;0.80;;;16.70;48.30;;;;;;5097841;28;20385;-54
2021/12/12 08:39:40;;;;;;;0.88;0.70;;;16.70;48.30;;;;;;5117400;28;20094;-57
2021/12/12 08:42:06;;;;;;;1.63;0.90;;;16.70;48.40;;;;;;5098783;28;20092;-57
2021/12/12 08:44:32;;;;;;;1.00;0.85;;;16.70;48.40;;;;;;5099864;28;20016;-57
2021/12/12 08:46:58;;;;;;;1.30;0.88;;;16.70;48.50;;;;;;5118277;28;20092;-57
2021/12/12 08:49:26;;;;;;;0.80;0.80;;;16.60;48.40;;;;;;5098993;28;20366;-57
2021/12/12 08:52:01;;;;;;;0.90;0.68;;;16.60;48.50;;;;;;5117140;28;20454;-58
2021/12/12 08:54:27;;;;;;;2.97;0.85;;;16.60;48.50;;;;;;5118520;28;20020;-57
2021/12/12 08:57:03;;;;;;;1.10;0.80;;;16.60;48.50;;;;;;5099557;28;20015;-56
2021/12/12 08:59:30;;;;;;;1.33;0.90;;;16.60;48.60;;;;;;5117184;28;20012;-55
2021/12/12 09:01:59;;;;;;;1.48;0.80;;;16.60;48.60;;;;;;5117821;28;20039;-53
2021/12/12 09:04:29;;;;;;;1.67;0.95;;;16.60;48.70;;;;;;5117125;28;20064;-56
2021/12/12 09:07:01;;;;;;;1.67;0.98;;;16.60;48.70;;;;;;5098679;28;20019;-55
2021/12/12 09:09:40;;;;;;;1.60;0.70;;;16.60;48.80;;;;;;5116390;28;20553;-54
2021/12/12 09:12:19;;;;;;;1.20;0.80;;;16.50;48.90;;;;;;5116704;28;20020;-54
2021/12/12 09:15:13;;;;;;;1.02;0.82;;;16.50;48.90;;;;;;5098272;28;20085;-54
2021/12/12 09:17:55;;;;;;;1.10;0.73;;;16.40;48.90;;;;;;5116326;28;20023;-54
2021/12/12 09:20:46;;;;;;;1.20;0.80;;;16.40;49.10;;;;;;5097890;28;20012;-54
2021/12/12 09:23:14;;;;;;;;;;;16.40;49.10;;;;;;5116609;28;20095;-56
2021/12/12 09:25:51;;;;;;;2.03;0.70;;;16.40;49.20;;;;;;5116352;28;19923;-54
2021/12/12 09:28:28;;;;;;;1.23;0.90;;;16.30;49.30;;;;;;5099045;28;20016;-55
2021/12/12 09:30:55;;;;;;;1.92;0.98;;;16.30;49.40;;;;;;5116049;28;20485;-55
2021/12/12 09:33:27;;;;;;;1.00;0.80;;;16.30;49.50;;;;;;5116305;28;20012;-54
2021/12/12 09:35:54;;;;;;;1.20;0.90;;;16.30;49.40;;;;;;5116253;28;20098;-55
2021/12/12 09:38:38;;;;;;;0.95;0.80;;;16.30;49.50;;;;;;5097684;28;20023;-55
2021/12/12 09:41:26;;;;;;;1.23;0.90;;;16.20;49.50;;;;;;5097798;28;20012;-55
2021/12/12 09:43:58;;;;;;;1.08;0.98;;;16.20;49.60;;;;;;5116242;28;20073;-53
2021/12/12 09:47:24;;;;;;;1.30;0.82;;;16.20;49.60;;;;;;5115677;28;20064;-53
2021/12/12 09:52:55;;;;;;;0.63;0.63;;;16.30;49.60;;;;;;5015161;28;20030;-57
2021/12/12 09:55:29;;;;;;;1.17;0.70;;;16.20;49.60;;;;;;5014441;28;20468;-55
2021/12/12 09:58:11;;;;;;;0.95;0.85;;;16.20;49.60;;;;;;4997917;28;20030;-56
2021/12/12 10:00:53;;;;;;;1.35;0.80;;;16.20;49.70;;;;;;5014295;28;20105;-55
2021/12/12 10:03:18;;;;;;;1.20;0.90;;;16.20;49.80;;;;;;5014121;28;20029;-56
2021/12/12 10:05:53;;;;;;;1.67;0.80;;;16.20;49.80;;;;;;5014255;28;20022;-54
2021/12/12 10:08:48;;;;;;;2.03;0.93;;;16.10;49.80;;;;;;5013729;28;20042;-55
2021/12/12 10:11:31;;;;;;;0.85;0.70;;;16.10;49.90;;;;;;5013882;28;20081;-55
2021/12/12 10:14:09;;;;;;;1.27;0.82;;;16.10;50.00;;;;;;4997797;28;20030;-55
2021/12/12 10:16:42;;;;;;;1.33;0.98;;;16.10;50.00;;;;;;5014972;28;20538;-56
2021/12/12 10:19:31;;;;;;;0.93;0.80;;;16.00;50.10;;;;;;4998919;28;20444;-52
2021/12/12 10:22:34;;;;;;;1.20;0.70;;;16.00;50.00;;;;;;5116947;28;20019;-53
2021/12/12 10:25:15;;;;;;;1.40;0.95;;;16.00;50.10;;;;;;5116233;28;20018;-53
2021/12/12 10:27:45;;;;;;;;;;;16.10;50.00;;;;;;5115613;28;20145;-53
2021/12/12 10:30:28;;;;;;;1.67;0.90;;;16.10;50.10;;;;;;5114861;28;19953;-53
2021/12/12 10:33:12;;;;;;;1.38;0.65;;;16.00;50.10;;;;;;5096647;28;20594;-52
2021/12/12 10:35:41;;;;;;;1.00;0.80;;;16.00;50.20;;;;;;5115362;28;20111;-53
2021/12/12 10:38:10;;;;;;;1.02;0.70;;;15.90;50.20;;;;;;5097058;28;20028;-52
2021/12/12 10:40:45;;;;;;;1.08;0.75;;;16.00;50.20;;;;;;5097114;28;20046;-51
2021/12/12 10:43:12;;;;;;;0.77;0.70;;;16.00;50.20;;;;;;5115473;28;20484;-53
2021/12/12 10:45:50;;;;;;;1.25;0.65;;;16.00;50.10;;;;;;5097147;28;20474;-52
2021/12/12 10:48:17;;;;;;;1.27;0.73;;;16.00;50.10;;;;;;5081394;28;20024;-53
2021/12/12 10:51:11;;;;;;;1.10;0.77;;;16.00;50.10;;;;;;5079982;28;20015;-52
2021/12/12 10:54:01;;;;;;;1.52;1.17;;;16.00;50.20;;;;;;5114991;28;20012;-52
2021/12/12 10:56:39;;;;;;;1.30;0.70;;;16.00;50.30;;;;;;5114902;28;20503;-54
2021/12/12 10:59:14;;;;;;;0.85;0.70;;;16.00;50.40;;;;;;5114817;28;20073;-53
2021/12/12 11:01:42;;;;;;;2.67;0.90;;;15.90;50.30;;;;;;5114711;28;20035;-52
2021/12/12 11:04:23;;;;;;;1.13;0.90;;;15.90;50.40;;;;;;5079749;28;20012;-52
2021/12/12 11:06:51;;;;;;;1.17;0.82;;;15.90;50.40;;;;;;5115091;28;20016;-52
2021/12/12 11:09:38;;;;;;;0.90;0.70;;;15.90;50.40;;;;;;5115625;28;20023;-53
2021/12/12 11:12:26;;;;;;;1.23;0.95;;;15.90;50.40;;;;;;5115309;28;20007;-50
2021/12/12 11:15:12;;;;;;;0.88;0.77;;;15.90;50.40;;;;;;5114737;28;20061;-52
2021/12/12 11:18:13;;;;;;;1.33;0.98;;;15.90;50.50;;;;;;5115259;28;20027;-53
2021/12/12 11:20:45;;;;;;;0.95;0.85;;;15.90;50.60;;;;;;5115143;28;20008;-51
2021/12/12 11:23:42;;;;;;;1.40;0.90;;;15.90;50.50;;;;;;5114648;28;20465;-53
2021/12/12 11:26:31;;;;;;;1.00;0.82;;;15.80;50.50;;;;;;5114562;28;20484;-50
2021/12/12 11:28:59;;;;;;;0.98;0.80;;;15.90;50.50;;;;;;5065215;28;20030;-52
2021/12/12 11:31:43;;;;;;;1.20;0.80;;;15.80;50.50;;;;;;5114018;28;20053;-53
2021/12/12 11:34:09;;;;;;;1.30;1.00;;;15.90;50.50;;;;;;5096725;28;20023;-52
2021/12/12 11:36:57;;;;;;;1.13;0.80;;;15.80;50.50;;;;;;5079162;28;20027;-52
2021/12/12 11:39:43;;;;;;;1.10;1.00;;;15.90;50.40;;;;;;5098959;28;20034;-52
2021/12/12 11:42:09;;;;;;;0.90;0.68;;;15.80;50.50;;;;;;5114281;28;20583;-51
2021/12/12 11:45:05;;;;;;;1.17;0.70;;;15.80;50.50;;;;;;5095555;28;20039;-53
2021/12/12 11:47:53;;;;;;;1.70;0.95;;;15.80;50.50;;;;;;5097682;28;20023;-52
2021/12/12 11:50:33;;;;;;;0.90;0.80;;;15.80;50.60;;;;;;5114461;28;20101;-52
2021/12/12 11:53:14;;;;;;;1.08;0.70;;;15.80;50.70;;;;;;5096491;28;20017;-53
2021/12/12 11:55:46;;;;;;;0.85;0.85;;;15.80;50.60;;;;;;5113779;28;20007;-53
2021/12/12 11:58:37;;;;;;;0.85;0.75;;;15.80;50.60;;;;;;5114210;28;20038;-51
2021/12/12 12:01:31;;;;;;;1.40;1.08;;;15.80;50.60;;;;;;5114441;28;20004;-52
2021/12/12 12:04:23;;;;;;;1.25;0.90;;;15.80;50.60;;;;;;5090635;28;20039;-51
2021/12/12 12:07:03;;;;;;;1.27;1.00;;;15.80;50.60;;;;;;5114054;28;20024;-51
2021/12/12 12:09:44;;;;;;;1.20;0.90;;;15.80;50.60;;;;;;5113978;28;20505;-50
2021/12/12 12:12:19;;;;;;;1.33;1.00;;;15.80;50.60;;;;;;5100220;28;20483;-52
2021/12/12 12:14:53;;;;;;;1.17;0.75;;;15.80;50.70;;;;;;5118336;28;20031;-49
2021/12/12 12:17:47;;;;;;;1.25;0.95;;;15.80;50.70;;;;;;5100688;28;20072;-52
2021/12/12 12:20:41;;;;;;;1.00;0.80;;;15.70;50.60;;;;;;5118132;28;20069;-52
2021/12/12 12:23:32;;;;;;;1.02;0.80;;;15.80;50.70;;;;;;5118220;28;20023;-50
2021/12/12 12:26:53;;;;;;;0.95;0.88;;;15.80;50.60;;;;;;5118709;28;20068;-52
2021/12/12 12:29:21;;;;;;;1.45;0.90;;;15.80;50.70;;;;;;5118295;28;20098;-48
2021/12/12 12:32:24;;;;;;;1.42;0.80;;;15.80;50.60;;;;;;5118596;28;20024;-51
2021/12/12 12:34:53;;;;;;;0.73;0.73;;;15.80;50.80;;;;;;5118204;28;20450;-51
2021/12/12 12:38:06;;;;;;;0.93;0.80;;;15.70;50.70;;;;;;5117756;28;20039;-51
2021/12/12 12:40:51;;;;;;;1.67;0.98;;;15.80;50.80;;;;;;5099465;28;20030;-51
2021/12/12 12:43:54;;;;;;;1.23;0.90;;;15.70;50.70;;;;;;5117756;28;20015;-51
2021/12/12 12:47:10;;;;;;;0.93;0.75;;;15.80;50.80;;;;;;5099261;28;20019;-49
2021/12/12 12:50:07;;;;;;;0.98;0.90;;;15.80;50.80;;;;;;5117631;28;20016;-52
2021/12/12 12:52:52;;;;;;;0.85;0.75;;;15.70;50.70;;;;;;5117616;28;20098;-51
2021/12/12 12:55:29;;;;;;;1.33;0.90;;;15.70;50.70;;;;;;5099851;28;20020;-52
2021/12/12 12:58:04;;;;;;;1.05;0.90;;;15.70;51.40;;;;;;5116980;28;20032;-52
2021/12/12 13:00:30;;;;;;;1.27;0.82;;;15.70;50.90;;;;;;5098568;28;20011;-52
2021/12/12 13:03:05;;;;;;;2.30;1.00;;;15.70;50.80;;;;;;5081942;28;20027;-48
2021/12/12 13:05:49;;;;;;;0.80;0.73;;;15.70;50.90;;;;;;5116833;28;20026;-53
2021/12/12 13:08:52;;;;;;;0.93;0.80;;;15.70;50.90;;;;;;5116803;28;20043;-51
2021/12/12 13:11:45;;;;;;;0.80;0.80;;;15.70;50.90;;;;;;5116678;28;20043;-51
2021/12/12 13:14:18;;;;;;;1.20;0.90;;;15.70;51.00;;;;;;5098245;28;20062;-50
2021/12/12 13:16:48;;;;;;;1.45;0.77;;;15.60;51.00;;;;;;5098670;28;20090;-50
2021/12/12 13:19:36;;;;;;;1.77;0.90;;;15.60;51.00;;;;;;5098600;28;20031;-51
2021/12/12 13:22:25;;;;;;;1.35;1.00;;;15.70;51.00;;;;;;5115831;28;20015;-53
2021/12/12 13:25:08;;;;;;;0.93;0.70;;;15.70;51.00;;;;;;5098145;28;20027;-51
2021/12/12 13:28:17;;;;;;;1.00;0.80;;;15.60;51.00;;;;;;5116642;28;20125;-53
2021/12/12 13:31:05;;;;;;;0.77;0.77;;;15.70;51.00;;;;;;5101169;28;20020;-52
2021/12/12 13:33:39;;;;;;;0.63;0.60;;;15.70;51.00;;;;;;5116271;28;20027;-50
2021/12/12 13:36:43;;;;;;;1.15;0.88;;;15.70;51.00;;;;;;5116417;28;20020;-51
2021/12/12 13:39:11;;;;;;;1.00;0.70;;;15.70;51.00;;;;;;5013626;28;20083;-53
2021/12/12 13:42:10;;;;;;;0.80;0.60;;;15.60;51.00;;;;;;5013501;28;20508;-53
2021/12/12 13:44:57;;;;;;;1.50;0.80;;;15.60;51.10;;;;;;5013548;28;20149;-52